sensor_id;sensor_type;location;lat;lon;timestamp;P1;durP1;ratioP1;P2;durP2;ratioP2
12296;SDS011;6211;49.124;9.152;2022-11-20T00:01:04;7.25;;;4.20;;
12296;SDS011;6211;49.124;9.152;2022-11-20T00:03:31;8.88;;;4.28;;
12296;SDS011;6211;49.124;9.152;2022-11-20T00:06:00;10.30;;;4.47;;
12296;SDS011;6211;49.124;9.152;2022-11-20T00:08:27;6.20;;;4.60;;
12296;SDS011;6211;49.124;9.152;2022-11-20T00:10:54;6.90;;;5.53;;
12296;SDS011;6211;49.124;9.152;2022-11-20T00:13:22;9.07;;;4.40;;
12296;SDS011;6211;49.124;9.152;2022-11-20T00:15:50;7.32;;;4.75;;
12296;SDS011;6211;49.124;9.152;2022-11-20T00:18:23;6.45;;;4.90;;
12296;SDS011;6211;49.124;9.152;2022-11-20T00:20:50;8.60;;;4.35;;
12296;SDS011;6211;49.124;9.152;2022-11-20T00:23:18;5.20;;;3.47;;
12296;SDS011;6211;49.124;9.152;2022-11-20T00:25:45;5.45;;;4.07;;
12296;SDS011;6211;49.124;9.152;2022-11-20T00:28:13;7.03;;;4.88;;
12296;SDS011;6211;49.124;9.152;2022-11-20T00:30:40;7.82;;;4.85;;
12296;SDS011;6211;49.124;9.152;2022-11-20T00:33:07;10.63;;;5.13;;
12296;SDS011;6211;49.124;9.152;2022-11-20T00:35:34;5.07;;;4.20;;
12296;SDS011;6211;49.124;9.152;2022-11-20T00:38:01;6.95;;;4.10;;
12296;SDS011;6211;49.124;9.152;2022-11-20T00:40:30;7.40;;;5.25;;
12296;SDS011;6211;49.124;9.152;2022-11-20T00:42:57;4.43;;;3.25;;
12296;SDS011;6211;49.124;9.152;2022-11-20T00:45:24;6.72;;;4.60;;
12296;SDS011;6211;49.124;9.152;2022-11-20T00:47:51;8.55;;;5.68;;
12296;SDS011;6211;49.124;9.152;2022-11-20T00:50:19;7.32;;;4.50;;
12296;SDS011;6211;49.124;9.152;2022-11-20T00:52:46;12.32;;;4.40;;
12296;SDS011;6211;49.124;9.152;2022-11-20T00:55:13;7.72;;;4.30;;
12296;SDS011;6211;49.124;9.152;2022-11-20T00:57:41;4.65;;;4.05;;
12296;SDS011;6211;49.124;9.152;2022-11-20T01:00:09;9.60;;;5.20;;
12296;SDS011;6211;49.124;9.152;2022-11-20T01:02:36;6.78;;;4.47;;
12296;SDS011;6211;49.124;9.152;2022-11-20T01:05:03;6.55;;;4.43;;
12296;SDS011;6211;49.124;9.152;2022-11-20T01:07:31;5.40;;;3.90;;
12296;SDS011;6211;49.124;9.152;2022-11-20T01:09:58;7.88;;;3.85;;
12296;SDS011;6211;49.124;9.152;2022-11-20T01:12:26;5.30;;;4.03;;
12296;SDS011;6211;49.124;9.152;2022-11-20T01:14:54;9.10;;;4.30;;
12296;SDS011;6211;49.124;9.152;2022-11-20T01:17:21;6.65;;;4.97;;
12296;SDS011;6211;49.124;9.152;2022-11-20T01:19:49;8.07;;;5.55;;
12296;SDS011;6211;49.124;9.152;2022-11-20T01:22:16;6.10;;;4.72;;
12296;SDS011;6211;49.124;9.152;2022-11-20T01:24:43;7.90;;;4.45;;
12296;SDS011;6211;49.124;9.152;2022-11-20T01:27:10;10.20;;;5.40;;
12296;SDS011;6211;49.124;9.152;2022-11-20T01:29:37;5.60;;;4.47;;
12296;SDS011;6211;49.124;9.152;2022-11-20T01:32:06;7.47;;;4.45;;
12296;SDS011;6211;49.124;9.152;2022-11-20T01:34:33;8.68;;;4.50;;
12296;SDS011;6211;49.124;9.152;2022-11-20T01:37:00;11.80;;;4.38;;
12296;SDS011;6211;49.124;9.152;2022-11-20T01:39:27;6.70;;;4.22;;
12296;SDS011;6211;49.124;9.152;2022-11-20T01:41:55;6.47;;;4.50;;
12296;SDS011;6211;49.124;9.152;2022-11-20T01:44:51;6.40;;;4.63;;
12296;SDS011;6211;49.124;9.152;2022-11-20T01:47:21;5.45;;;4.85;;
12296;SDS011;6211;49.124;9.152;2022-11-20T01:49:50;5.30;;;4.10;;
12296;SDS011;6211;49.124;9.152;2022-11-20T01:52:20;7.03;;;4.45;;
12296;SDS011;6211;49.124;9.152;2022-11-20T01:54:50;6.22;;;4.03;;
12296;SDS011;6211;49.124;9.152;2022-11-20T01:57:18;6.50;;;4.72;;
12296;SDS011;6211;49.124;9.152;2022-11-20T01:59:47;8.27;;;5.43;;
12296;SDS011;6211;49.124;9.152;2022-11-20T02:02:16;8.20;;;4.82;;
12296;SDS011;6211;49.124;9.152;2022-11-20T02:04:45;9.32;;;5.82;;
12296;SDS011;6211;49.124;9.152;2022-11-20T02:07:12;10.52;;;5.82;;
12296;SDS011;6211;49.124;9.152;2022-11-20T02:09:40;8.40;;;4.20;;
12296;SDS011;6211;49.124;9.152;2022-11-20T02:12:07;7.07;;;5.47;;
12296;SDS011;6211;49.124;9.152;2022-11-20T02:14:54;9.02;;;5.47;;
12296;SDS011;6211;49.124;9.152;2022-11-20T02:17:21;8.90;;;5.47;;
12296;SDS011;6211;49.124;9.152;2022-11-20T02:19:49;6.47;;;4.45;;
12296;SDS011;6211;49.124;9.152;2022-11-20T02:22:17;7.20;;;4.07;;
12296;SDS011;6211;49.124;9.152;2022-11-20T02:24:47;7.07;;;4.95;;
12296;SDS011;6211;49.124;9.152;2022-11-20T02:27:16;11.48;;;5.95;;
12296;SDS011;6211;49.124;9.152;2022-11-20T02:29:44;8.55;;;5.05;;
12296;SDS011;6211;49.124;9.152;2022-11-20T02:32:17;5.70;;;4.65;;
12296;SDS011;6211;49.124;9.152;2022-11-20T02:34:44;8.30;;;4.28;;
12296;SDS011;6211;49.124;9.152;2022-11-20T02:37:11;6.53;;;3.92;;
12296;SDS011;6211;49.124;9.152;2022-11-20T02:39:39;8.35;;;5.15;;
12296;SDS011;6211;49.124;9.152;2022-11-20T02:42:08;8.63;;;5.13;;
12296;SDS011;6211;49.124;9.152;2022-11-20T02:44:35;7.30;;;5.47;;
12296;SDS011;6211;49.124;9.152;2022-11-20T02:47:02;11.95;;;5.45;;
12296;SDS011;6211;49.124;9.152;2022-11-20T02:49:29;6.30;;;5.07;;
12296;SDS011;6211;49.124;9.152;2022-11-20T02:51:56;7.43;;;5.60;;
12296;SDS011;6211;49.124;9.152;2022-11-20T02:54:23;7.78;;;5.25;;
12296;SDS011;6211;49.124;9.152;2022-11-20T02:56:51;7.50;;;5.28;;
12296;SDS011;6211;49.124;9.152;2022-11-20T02:59:19;10.10;;;5.15;;
12296;SDS011;6211;49.124;9.152;2022-11-20T03:01:46;7.80;;;4.32;;
12296;SDS011;6211;49.124;9.152;2022-11-20T03:04:13;8.30;;;5.35;;
12296;SDS011;6211;49.124;9.152;2022-11-20T03:06:41;7.22;;;3.53;;
12296;SDS011;6211;49.124;9.152;2022-11-20T03:09:08;8.95;;;5.25;;
12296;SDS011;6211;49.124;9.152;2022-11-20T03:11:35;6.43;;;5.13;;
12296;SDS011;6211;49.124;9.152;2022-11-20T03:14:02;8.98;;;4.80;;
12296;SDS011;6211;49.124;9.152;2022-11-20T03:16:31;9.30;;;5.47;;
12296;SDS011;6211;49.124;9.152;2022-11-20T03:18:58;10.88;;;4.88;;
12296;SDS011;6211;49.124;9.152;2022-11-20T03:21:25;5.97;;;4.55;;
12296;SDS011;6211;49.124;9.152;2022-11-20T03:23:52;6.53;;;4.50;;
12296;SDS011;6211;49.124;9.152;2022-11-20T03:26:20;8.90;;;4.47;;
12296;SDS011;6211;49.124;9.152;2022-11-20T03:28:49;7.85;;;5.25;;
12296;SDS011;6211;49.124;9.152;2022-11-20T03:31:18;7.70;;;4.68;;
12296;SDS011;6211;49.124;9.152;2022-11-20T03:33:46;6.30;;;4.20;;
12296;SDS011;6211;49.124;9.152;2022-11-20T03:36:14;8.90;;;4.47;;
12296;SDS011;6211;49.124;9.152;2022-11-20T03:38:42;7.30;;;4.40;;
12296;SDS011;6211;49.124;9.152;2022-11-20T03:41:09;6.55;;;4.70;;
12296;SDS011;6211;49.124;9.152;2022-11-20T03:43:37;8.38;;;5.18;;
12296;SDS011;6211;49.124;9.152;2022-11-20T03:46:04;9.65;;;5.35;;
12296;SDS011;6211;49.124;9.152;2022-11-20T03:48:31;6.78;;;4.75;;
12296;SDS011;6211;49.124;9.152;2022-11-20T03:51:11;8.73;;;5.70;;
12296;SDS011;6211;49.124;9.152;2022-11-20T03:53:38;8.85;;;5.38;;
12296;SDS011;6211;49.124;9.152;2022-11-20T03:56:06;6.95;;;5.10;;
12296;SDS011;6211;49.124;9.152;2022-11-20T03:58:33;5.43;;;3.92;;
12296;SDS011;6211;49.124;9.152;2022-11-20T04:01:05;7.97;;;4.75;;
12296;SDS011;6211;49.124;9.152;2022-11-20T04:03:32;6.97;;;4.97;;
12296;SDS011;6211;49.124;9.152;2022-11-20T04:06:01;8.48;;;4.13;;
12296;SDS011;6211;49.124;9.152;2022-11-20T04:08:29;5.25;;;3.17;;
12296;SDS011;6211;49.124;9.152;2022-11-20T04:10:56;8.82;;;3.28;;
12296;SDS011;6211;49.124;9.152;2022-11-20T04:13:23;6.35;;;3.42;;
12296;SDS011;6211;49.124;9.152;2022-11-20T04:15:51;4.93;;;3.78;;
12296;SDS011;6211;49.124;9.152;2022-11-20T04:18:18;7.75;;;4.05;;
12296;SDS011;6211;49.124;9.152;2022-11-20T04:20:45;5.65;;;3.40;;
12296;SDS011;6211;49.124;9.152;2022-11-20T04:23:12;3.22;;;2.92;;
12296;SDS011;6211;49.124;9.152;2022-11-20T04:25:40;4.28;;;3.65;;
12296;SDS011;6211;49.124;9.152;2022-11-20T04:28:08;4.53;;;3.10;;
12296;SDS011;6211;49.124;9.152;2022-11-20T04:30:35;4.53;;;3.65;;
12296;SDS011;6211;49.124;9.152;2022-11-20T04:33:02;6.13;;;4.15;;
12296;SDS011;6211;49.124;9.152;2022-11-20T04:35:29;5.10;;;3.42;;
12296;SDS011;6211;49.124;9.152;2022-11-20T04:37:56;4.03;;;3.10;;
12296;SDS011;6211;49.124;9.152;2022-11-20T04:40:23;5.65;;;3.95;;
12296;SDS011;6211;49.124;9.152;2022-11-20T04:42:52;5.07;;;3.55;;
12296;SDS011;6211;49.124;9.152;2022-11-20T04:45:19;4.63;;;3.35;;
12296;SDS011;6211;49.124;9.152;2022-11-20T04:47:46;7.35;;;3.30;;
12296;SDS011;6211;49.124;9.152;2022-11-20T04:50:13;4.03;;;2.60;;
12296;SDS011;6211;49.124;9.152;2022-11-20T04:52:40;3.45;;;3.10;;
12296;SDS011;6211;49.124;9.152;2022-11-20T04:55:08;3.33;;;3.03;;
12296;SDS011;6211;49.124;9.152;2022-11-20T04:57:35;5.25;;;3.40;;
12296;SDS011;6211;49.124;9.152;2022-11-20T05:00:04;3.10;;;2.63;;
12296;SDS011;6211;49.124;9.152;2022-11-20T05:02:32;3.40;;;2.60;;
12296;SDS011;6211;49.124;9.152;2022-11-20T05:04:59;5.60;;;3.20;;
12296;SDS011;6211;49.124;9.152;2022-11-20T05:07:26;5.45;;;3.33;;
12296;SDS011;6211;49.124;9.152;2022-11-20T05:09:53;3.40;;;3.10;;
12296;SDS011;6211;49.124;9.152;2022-11-20T05:12:20;5.22;;;3.10;;
12296;SDS011;6211;49.124;9.152;2022-11-20T05:14:47;5.63;;;3.25;;
12296;SDS011;6211;49.124;9.152;2022-11-20T05:17:16;3.90;;;2.63;;
12296;SDS011;6211;49.124;9.152;2022-11-20T05:19:43;2.78;;;2.40;;
12296;SDS011;6211;49.124;9.152;2022-11-20T05:22:10;4.47;;;3.17;;
12296;SDS011;6211;49.124;9.152;2022-11-20T05:24:37;6.25;;;2.47;;
12296;SDS011;6211;49.124;9.152;2022-11-20T05:27:04;2.90;;;2.30;;
12296;SDS011;6211;49.124;9.152;2022-11-20T05:29:31;4.22;;;2.38;;
12296;SDS011;6211;49.124;9.152;2022-11-20T05:31:58;4.38;;;2.85;;
12296;SDS011;6211;49.124;9.152;2022-11-20T05:34:27;3.03;;;2.72;;
12296;SDS011;6211;49.124;9.152;2022-11-20T05:36:54;1.88;;;1.67;;
12296;SDS011;6211;49.124;9.152;2022-11-20T05:39:21;5.28;;;2.50;;
12296;SDS011;6211;49.124;9.152;2022-11-20T05:41:48;2.60;;;2.13;;
12296;SDS011;6211;49.124;9.152;2022-11-20T05:44:36;3.13;;;2.10;;
12296;SDS011;6211;49.124;9.152;2022-11-20T05:47:03;5.85;;;2.30;;
12296;SDS011;6211;49.124;9.152;2022-11-20T05:49:32;3.40;;;2.60;;
12296;SDS011;6211;49.124;9.152;2022-11-20T05:51:59;3.25;;;2.50;;
12296;SDS011;6211;49.124;9.152;2022-11-20T05:54:26;3.78;;;2.30;;
12296;SDS011;6211;49.124;9.152;2022-11-20T05:56:54;3.55;;;2.22;;
12296;SDS011;6211;49.124;9.152;2022-11-20T05:59:21;2.22;;;2.03;;
12296;SDS011;6211;49.124;9.152;2022-11-20T06:01:48;3.25;;;2.45;;
12296;SDS011;6211;49.124;9.152;2022-11-20T06:04:15;2.63;;;2.22;;
12296;SDS011;6211;49.124;9.152;2022-11-20T06:06:44;2.20;;;1.90;;
12296;SDS011;6211;49.124;9.152;2022-11-20T06:09:11;3.65;;;2.13;;
12296;SDS011;6211;49.124;9.152;2022-11-20T06:11:38;2.90;;;1.92;;
12296;SDS011;6211;49.124;9.152;2022-11-20T06:14:05;4.88;;;1.80;;
12296;SDS011;6211;49.124;9.152;2022-11-20T06:16:32;2.47;;;1.88;;
12296;SDS011;6211;49.124;9.152;2022-11-20T06:19:00;2.53;;;1.83;;
12296;SDS011;6211;49.124;9.152;2022-11-20T06:21:27;2.70;;;2.17;;
12296;SDS011;6211;49.124;9.152;2022-11-20T06:23:55;3.65;;;2.22;;
12296;SDS011;6211;49.124;9.152;2022-11-20T06:26:23;5.85;;;1.92;;
12296;SDS011;6211;49.124;9.152;2022-11-20T06:28:51;1.88;;;1.40;;
12296;SDS011;6211;49.124;9.152;2022-11-20T06:31:19;3.05;;;2.72;;
12296;SDS011;6211;49.124;9.152;2022-11-20T06:33:47;1.55;;;1.35;;
12296;SDS011;6211;49.124;9.152;2022-11-20T06:36:15;3.67;;;2.20;;
12296;SDS011;6211;49.124;9.152;2022-11-20T06:38:43;1.70;;;1.40;;
12296;SDS011;6211;49.124;9.152;2022-11-20T06:41:13;2.40;;;1.85;;
12296;SDS011;6211;49.124;9.152;2022-11-20T06:43:43;2.03;;;1.58;;
12296;SDS011;6211;49.124;9.152;2022-11-20T06:46:11;1.35;;;1.25;;
12296;SDS011;6211;49.124;9.152;2022-11-20T06:48:38;1.45;;;1.35;;
12296;SDS011;6211;49.124;9.152;2022-11-20T06:51:05;1.48;;;1.27;;
12296;SDS011;6211;49.124;9.152;2022-11-20T06:53:33;1.88;;;1.40;;
12296;SDS011;6211;49.124;9.152;2022-11-20T06:56:00;1.55;;;1.45;;
12296;SDS011;6211;49.124;9.152;2022-11-20T06:58:30;1.70;;;1.60;;
12296;SDS011;6211;49.124;9.152;2022-11-20T07:00:57;1.67;;;1.23;;
12296;SDS011;6211;49.124;9.152;2022-11-20T07:03:25;2.20;;;1.63;;
12296;SDS011;6211;49.124;9.152;2022-11-20T07:05:54;1.50;;;1.30;;
12296;SDS011;6211;49.124;9.152;2022-11-20T07:08:21;1.65;;;1.55;;
12296;SDS011;6211;49.124;9.152;2022-11-20T07:10:48;1.50;;;1.40;;
12296;SDS011;6211;49.124;9.152;2022-11-20T07:13:16;1.60;;;1.15;;
12296;SDS011;6211;49.124;9.152;2022-11-20T07:15:44;5.68;;;1.30;;
12296;SDS011;6211;49.124;9.152;2022-11-20T07:18:11;1.52;;;1.42;;
12296;SDS011;6211;49.124;9.152;2022-11-20T07:20:38;1.27;;;1.08;;
12296;SDS011;6211;49.124;9.152;2022-11-20T07:23:05;2.85;;;2.03;;
12296;SDS011;6211;49.124;9.152;2022-11-20T07:25:33;2.60;;;1.52;;
12296;SDS011;6211;49.124;9.152;2022-11-20T07:28:00;1.33;;;1.23;;
12296;SDS011;6211;49.124;9.152;2022-11-20T07:30:29;2.40;;;1.75;;
12296;SDS011;6211;49.124;9.152;2022-11-20T07:32:57;2.92;;;1.70;;
12296;SDS011;6211;49.124;9.152;2022-11-20T07:35:24;2.10;;;1.90;;
12296;SDS011;6211;49.124;9.152;2022-11-20T07:37:52;2.30;;;1.75;;
12296;SDS011;6211;49.124;9.152;2022-11-20T07:40:19;2.38;;;1.95;;
12296;SDS011;6211;49.124;9.152;2022-11-20T07:42:49;2.67;;;1.38;;
12296;SDS011;6211;49.124;9.152;2022-11-20T07:45:16;1.50;;;1.38;;
12296;SDS011;6211;49.124;9.152;2022-11-20T07:47:43;1.45;;;1.17;;
12296;SDS011;6211;49.124;9.152;2022-11-20T07:50:12;1.48;;;1.08;;
12296;SDS011;6211;49.124;9.152;2022-11-20T07:52:40;1.77;;;1.63;;
12296;SDS011;6211;49.124;9.152;2022-11-20T07:55:08;2.17;;;1.80;;
12296;SDS011;6211;49.124;9.152;2022-11-20T07:57:35;1.92;;;1.70;;
12296;SDS011;6211;49.124;9.152;2022-11-20T08:00:03;1.00;;;1.00;;
12296;SDS011;6211;49.124;9.152;2022-11-20T08:02:30;0.93;;;0.93;;
12296;SDS011;6211;49.124;9.152;2022-11-20T08:04:57;1.48;;;1.38;;
12296;SDS011;6211;49.124;9.152;2022-11-20T08:07:26;1.48;;;1.27;;
12296;SDS011;6211;49.124;9.152;2022-11-20T08:09:53;2.28;;;1.23;;
12296;SDS011;6211;49.124;9.152;2022-11-20T08:12:20;3.03;;;1.80;;
12296;SDS011;6211;49.124;9.152;2022-11-20T08:15:06;1.05;;;1.00;;
12296;SDS011;6211;49.124;9.152;2022-11-20T08:17:33;1.15;;;0.98;;
12296;SDS011;6211;49.124;9.152;2022-11-20T08:20:00;1.80;;;1.40;;
12296;SDS011;6211;49.124;9.152;2022-11-20T08:22:29;1.35;;;1.10;;
12296;SDS011;6211;49.124;9.152;2022-11-20T08:24:56;0.75;;;0.75;;
12296;SDS011;6211;49.124;9.152;2022-11-20T08:27:23;1.13;;;1.05;;
12296;SDS011;6211;49.124;9.152;2022-11-20T08:29:50;1.10;;;1.00;;
12296;SDS011;6211;49.124;9.152;2022-11-20T08:32:18;1.38;;;1.27;;
12296;SDS011;6211;49.124;9.152;2022-11-20T08:34:45;1.50;;;1.27;;
12296;SDS011;6211;49.124;9.152;2022-11-20T08:37:12;1.35;;;1.23;;
12296;SDS011;6211;49.124;9.152;2022-11-20T08:39:40;1.60;;;1.33;;
12296;SDS011;6211;49.124;9.152;2022-11-20T08:42:08;1.00;;;0.90;;
12296;SDS011;6211;49.124;9.152;2022-11-20T08:44:35;1.27;;;1.08;;
12296;SDS011;6211;49.124;9.152;2022-11-20T08:47:02;0.88;;;0.88;;
12296;SDS011;6211;49.124;9.152;2022-11-20T08:49:29;2.60;;;1.33;;
12296;SDS011;6211;49.124;9.152;2022-11-20T08:51:56;1.60;;;1.38;;
12296;SDS011;6211;49.124;9.152;2022-11-20T08:54:23;1.38;;;1.27;;
12296;SDS011;6211;49.124;9.152;2022-11-20T08:56:52;1.70;;;1.35;;
12296;SDS011;6211;49.124;9.152;2022-11-20T08:59:19;1.58;;;1.40;;
12296;SDS011;6211;49.124;9.152;2022-11-20T09:01:46;1.38;;;1.27;;
12296;SDS011;6211;49.124;9.152;2022-11-20T09:04:13;1.40;;;1.30;;
12296;SDS011;6211;49.124;9.152;2022-11-20T09:06:41;0.88;;;0.88;;
12296;SDS011;6211;49.124;9.152;2022-11-20T09:09:08;0.82;;;0.82;;
12296;SDS011;6211;49.124;9.152;2022-11-20T09:11:35;0.95;;;0.95;;
12296;SDS011;6211;49.124;9.152;2022-11-20T09:14:04;2.40;;;1.13;;
12296;SDS011;6211;49.124;9.152;2022-11-20T09:16:33;1.23;;;1.13;;
12296;SDS011;6211;49.124;9.152;2022-11-20T09:19:00;1.02;;;0.70;;
12296;SDS011;6211;49.124;9.152;2022-11-20T09:21:28;1.00;;;0.90;;
12296;SDS011;6211;49.124;9.152;2022-11-20T09:23:55;1.40;;;0.93;;
12296;SDS011;6211;49.124;9.152;2022-11-20T09:26:22;1.50;;;1.40;;
12296;SDS011;6211;49.124;9.152;2022-11-20T09:28:49;0.80;;;0.80;;
12296;SDS011;6211;49.124;9.152;2022-11-20T09:31:19;2.00;;;1.30;;
12296;SDS011;6211;49.124;9.152;2022-11-20T09:33:48;2.00;;;1.40;;
12296;SDS011;6211;49.124;9.152;2022-11-20T09:36:15;1.30;;;1.20;;
12296;SDS011;6211;49.124;9.152;2022-11-20T09:38:43;1.33;;;1.13;;
12296;SDS011;6211;49.124;9.152;2022-11-20T09:41:17;1.52;;;1.40;;
12296;SDS011;6211;49.124;9.152;2022-11-20T09:43:46;1.67;;;1.58;;
12296;SDS011;6211;49.124;9.152;2022-11-20T09:46:17;1.95;;;1.70;;
12296;SDS011;6211;49.124;9.152;2022-11-20T09:48:58;2.35;;;1.98;;
12296;SDS011;6211;49.124;9.152;2022-11-20T09:51:35;2.78;;;2.35;;
12296;SDS011;6211;49.124;9.152;2022-11-20T09:54:06;3.03;;;1.58;;
12296;SDS011;6211;49.124;9.152;2022-11-20T09:56:40;2.25;;;1.98;;
12296;SDS011;6211;49.124;9.152;2022-11-20T09:59:12;1.92;;;1.83;;
12296;SDS011;6211;49.124;9.152;2022-11-20T10:01:42;2.55;;;2.05;;
12296;SDS011;6211;49.124;9.152;2022-11-20T10:04:12;6.70;;;1.77;;
12296;SDS011;6211;49.124;9.152;2022-11-20T10:06:44;2.38;;;1.88;;
12296;SDS011;6211;49.124;9.152;2022-11-20T10:09:17;2.40;;;1.85;;
12296;SDS011;6211;49.124;9.152;2022-11-20T10:11:46;2.05;;;1.80;;
12296;SDS011;6211;49.124;9.152;2022-11-20T10:14:21;2.20;;;2.00;;
12296;SDS011;6211;49.124;9.152;2022-11-20T10:16:54;1.77;;;1.45;;
12296;SDS011;6211;49.124;9.152;2022-11-20T10:19:33;2.22;;;1.65;;
12296;SDS011;6211;49.124;9.152;2022-11-20T10:22:05;1.98;;;1.52;;
12296;SDS011;6211;49.124;9.152;2022-11-20T10:24:40;1.60;;;1.50;;
12296;SDS011;6211;49.124;9.152;2022-11-20T10:27:14;1.83;;;1.67;;
12296;SDS011;6211;49.124;9.152;2022-11-20T10:29:43;1.90;;;1.52;;
12296;SDS011;6211;49.124;9.152;2022-11-20T10:32:14;1.90;;;1.70;;
12296;SDS011;6211;49.124;9.152;2022-11-20T10:34:46;1.73;;;1.27;;
12296;SDS011;6211;49.124;9.152;2022-11-20T10:37:14;1.27;;;1.10;;
12296;SDS011;6211;49.124;9.152;2022-11-20T10:39:44;1.40;;;1.27;;
12296;SDS011;6211;49.124;9.152;2022-11-20T10:42:14;2.05;;;1.00;;
12296;SDS011;6211;49.124;9.152;2022-11-20T10:44:43;1.88;;;1.42;;
12296;SDS011;6211;49.124;9.152;2022-11-20T10:47:29;1.60;;;1.50;;
12296;SDS011;6211;49.124;9.152;2022-11-20T10:50:01;1.65;;;1.13;;
12296;SDS011;6211;49.124;9.152;2022-11-20T10:52:30;2.55;;;1.55;;
12296;SDS011;6211;49.124;9.152;2022-11-20T10:55:02;1.92;;;1.40;;
12296;SDS011;6211;49.124;9.152;2022-11-20T10:57:36;1.58;;;1.48;;
12296;SDS011;6211;49.124;9.152;2022-11-20T11:00:07;1.75;;;1.65;;
12296;SDS011;6211;49.124;9.152;2022-11-20T11:02:39;1.38;;;1.20;;
12296;SDS011;6211;49.124;9.152;2022-11-20T11:05:12;3.65;;;1.60;;
12296;SDS011;6211;49.124;9.152;2022-11-20T11:07:41;1.65;;;1.55;;
12296;SDS011;6211;49.124;9.152;2022-11-20T11:10:16;1.00;;;0.98;;
12296;SDS011;6211;49.124;9.152;2022-11-20T11:12:45;1.67;;;1.55;;
12296;SDS011;6211;49.124;9.152;2022-11-20T11:15:13;1.50;;;1.40;;
12296;SDS011;6211;49.124;9.152;2022-11-20T11:17:45;2.38;;;2.17;;
12296;SDS011;6211;49.124;9.152;2022-11-20T11:20:18;2.88;;;1.45;;
12296;SDS011;6211;49.124;9.152;2022-11-20T11:22:47;1.38;;;1.27;;
12296;SDS011;6211;49.124;9.152;2022-11-20T11:25:28;4.35;;;1.70;;
12296;SDS011;6211;49.124;9.152;2022-11-20T11:27:58;1.70;;;1.60;;
12296;SDS011;6211;49.124;9.152;2022-11-20T11:30:26;1.52;;;1.42;;
12296;SDS011;6211;49.124;9.152;2022-11-20T11:33:05;4.40;;;2.05;;
12296;SDS011;6211;49.124;9.152;2022-11-20T11:35:38;2.20;;;1.92;;
12296;SDS011;6211;49.124;9.152;2022-11-20T11:38:06;4.40;;;2.28;;
12296;SDS011;6211;49.124;9.152;2022-11-20T11:40:34;2.63;;;2.42;;
12296;SDS011;6211;49.124;9.152;2022-11-20T11:43:03;6.97;;;2.17;;
12296;SDS011;6211;49.124;9.152;2022-11-20T11:45:52;3.88;;;1.73;;
12296;SDS011;6211;49.124;9.152;2022-11-20T11:48:18;5.97;;;1.88;;
12296;SDS011;6211;49.124;9.152;2022-11-20T11:50:49;2.33;;;2.08;;
12296;SDS011;6211;49.124;9.152;2022-11-20T11:53:17;3.78;;;2.20;;
12296;SDS011;6211;49.124;9.152;2022-11-20T11:55:45;2.15;;;1.98;;
12296;SDS011;6211;49.124;9.152;2022-11-20T11:58:16;2.40;;;2.20;;
12296;SDS011;6211;49.124;9.152;2022-11-20T12:00:49;2.28;;;1.55;;
12296;SDS011;6211;49.124;9.152;2022-11-20T12:03:19;4.30;;;1.63;;
12296;SDS011;6211;49.124;9.152;2022-11-20T12:05:50;3.80;;;1.85;;
12296;SDS011;6211;49.124;9.152;2022-11-20T12:08:23;1.40;;;1.30;;
12296;SDS011;6211;49.124;9.152;2022-11-20T12:10:53;2.35;;;1.60;;
12296;SDS011;6211;49.124;9.152;2022-11-20T12:13:30;2.50;;;1.25;;
12296;SDS011;6211;49.124;9.152;2022-11-20T12:16:01;1.70;;;1.50;;
12296;SDS011;6211;49.124;9.152;2022-11-20T12:18:29;1.27;;;1.17;;
12296;SDS011;6211;49.124;9.152;2022-11-20T12:21:02;2.83;;;1.30;;
12296;SDS011;6211;49.124;9.152;2022-11-20T12:23:34;3.55;;;1.67;;
12296;SDS011;6211;49.124;9.152;2022-11-20T12:26:04;3.13;;;1.30;;
12296;SDS011;6211;49.124;9.152;2022-11-20T12:28:37;1.25;;;1.15;;
12296;SDS011;6211;49.124;9.152;2022-11-20T12:31:12;1.30;;;1.20;;
12296;SDS011;6211;49.124;9.152;2022-11-20T12:33:50;1.73;;;1.48;;
12296;SDS011;6211;49.124;9.152;2022-11-20T12:36:26;5.00;;;1.35;;
12296;SDS011;6211;49.124;9.152;2022-11-20T12:38:57;1.60;;;1.27;;
12296;SDS011;6211;49.124;9.152;2022-11-20T12:41:28;1.38;;;1.27;;
12296;SDS011;6211;49.124;9.152;2022-11-20T12:44:24;1.13;;;1.13;;
12296;SDS011;6211;49.124;9.152;2022-11-20T12:47:16;1.30;;;1.20;;
12296;SDS011;6211;49.124;9.152;2022-11-20T12:49:47;7.68;;;1.55;;
12296;SDS011;6211;49.124;9.152;2022-11-20T12:52:23;1.27;;;1.17;;
12296;SDS011;6211;49.124;9.152;2022-11-20T12:54:58;4.80;;;1.48;;
12296;SDS011;6211;49.124;9.152;2022-11-20T12:57:29;0.90;;;0.90;;
12296;SDS011;6211;49.124;9.152;2022-11-20T13:00:07;1.33;;;1.20;;
12296;SDS011;6211;49.124;9.152;2022-11-20T13:02:38;1.27;;;0.88;;
12296;SDS011;6211;49.124;9.152;2022-11-20T13:05:15;2.63;;;1.60;;
12296;SDS011;6211;49.124;9.152;2022-11-20T13:07:46;1.20;;;1.20;;
12296;SDS011;6211;49.124;9.152;2022-11-20T13:10:15;1.38;;;1.10;;
12296;SDS011;6211;49.124;9.152;2022-11-20T13:12:45;1.20;;;1.10;;
12296;SDS011;6211;49.124;9.152;2022-11-20T13:15:15;1.48;;;1.10;;
12296;SDS011;6211;49.124;9.152;2022-11-20T13:17:45;0.80;;;0.63;;
12296;SDS011;6211;49.124;9.152;2022-11-20T13:20:15;2.10;;;0.90;;
12296;SDS011;6211;49.124;9.152;2022-11-20T13:22:44;0.80;;;0.80;;
12296;SDS011;6211;49.124;9.152;2022-11-20T13:25:23;2.38;;;0.70;;
12296;SDS011;6211;49.124;9.152;2022-11-20T13:27:50;3.15;;;1.30;;
12296;SDS011;6211;49.124;9.152;2022-11-20T13:30:18;2.42;;;0.93;;
12296;SDS011;6211;49.124;9.152;2022-11-20T13:32:52;1.20;;;1.10;;
12296;SDS011;6211;49.124;9.152;2022-11-20T13:35:24;0.77;;;0.77;;
12296;SDS011;6211;49.124;9.152;2022-11-20T13:37:59;2.22;;;1.00;;
12296;SDS011;6211;49.124;9.152;2022-11-20T13:40:28;3.65;;;1.08;;
12296;SDS011;6211;49.124;9.152;2022-11-20T13:42:56;1.38;;;1.02;;
12296;SDS011;6211;49.124;9.152;2022-11-20T13:45:28;1.58;;;1.08;;
12296;SDS011;6211;49.124;9.152;2022-11-20T13:47:56;2.47;;;0.90;;
12296;SDS011;6211;49.124;9.152;2022-11-20T13:50:30;1.10;;;1.00;;
12296;SDS011;6211;49.124;9.152;2022-11-20T13:53:06;1.10;;;0.80;;
12296;SDS011;6211;49.124;9.152;2022-11-20T13:55:37;0.90;;;0.85;;
12296;SDS011;6211;49.124;9.152;2022-11-20T14:00:57;1.70;;;0.82;;
12296;SDS011;6211;49.124;9.152;2022-11-20T14:03:25;1.75;;;0.80;;
12296;SDS011;6211;49.124;9.152;2022-11-20T14:05:55;2.25;;;0.90;;
12296;SDS011;6211;49.124;9.152;2022-11-20T14:08:27;0.55;;;0.55;;
12296;SDS011;6211;49.124;9.152;2022-11-20T14:11:04;0.63;;;0.50;;
12296;SDS011;6211;49.124;9.152;2022-11-20T14:13:31;0.73;;;0.73;;
12296;SDS011;6211;49.124;9.152;2022-11-20T14:15:58;2.05;;;0.75;;
12296;SDS011;6211;49.124;9.152;2022-11-20T14:18:26;0.70;;;0.70;;
12296;SDS011;6211;49.124;9.152;2022-11-20T14:20:53;0.80;;;0.77;;
12296;SDS011;6211;49.124;9.152;2022-11-20T14:23:25;0.47;;;0.47;;
12296;SDS011;6211;49.124;9.152;2022-11-20T14:25:52;2.17;;;0.60;;
12296;SDS011;6211;49.124;9.152;2022-11-20T14:28:23;0.50;;;0.50;;
12296;SDS011;6211;49.124;9.152;2022-11-20T14:30:51;1.58;;;0.70;;
12296;SDS011;6211;49.124;9.152;2022-11-20T14:33:18;1.27;;;0.60;;
12296;SDS011;6211;49.124;9.152;2022-11-20T14:35:50;0.60;;;0.60;;
12296;SDS011;6211;49.124;9.152;2022-11-20T14:38:18;2.40;;;1.33;;
12296;SDS011;6211;49.124;9.152;2022-11-20T14:40:47;0.80;;;0.80;;
12296;SDS011;6211;49.124;9.152;2022-11-20T14:43:18;1.35;;;0.80;;
12296;SDS011;6211;49.124;9.152;2022-11-20T14:45:48;2.85;;;1.45;;
12296;SDS011;6211;49.124;9.152;2022-11-20T14:48:18;0.75;;;0.75;;
12296;SDS011;6211;49.124;9.152;2022-11-20T14:50:47;1.25;;;1.17;;
12296;SDS011;6211;49.124;9.152;2022-11-20T14:53:21;2.42;;;1.13;;
12296;SDS011;6211;49.124;9.152;2022-11-20T14:55:53;0.60;;;0.60;;
12296;SDS011;6211;49.124;9.152;2022-11-20T14:58:21;0.82;;;0.52;;
12296;SDS011;6211;49.124;9.152;2022-11-20T15:00:54;0.70;;;0.70;;
12296;SDS011;6211;49.124;9.152;2022-11-20T15:03:21;0.70;;;0.70;;
12296;SDS011;6211;49.124;9.152;2022-11-20T15:05:49;0.77;;;0.77;;
12296;SDS011;6211;49.124;9.152;2022-11-20T15:08:17;0.95;;;0.82;;
12296;SDS011;6211;49.124;9.152;2022-11-20T15:10:45;1.27;;;1.10;;
12296;SDS011;6211;49.124;9.152;2022-11-20T15:13:13;5.13;;;1.70;;
12296;SDS011;6211;49.124;9.152;2022-11-20T15:15:43;2.55;;;1.20;;